createdAt,value
2019-03-12T00:02:00.520Z,76.30
2019-03-12T00:04:26.688Z,76.30
2019-03-12T00:06:52.829Z,76.20
2019-03-12T00:09:19.104Z,76.20
2019-03-12T00:11:45.632Z,76.20
2019-03-12T00:14:11.786Z,76.20
2019-03-12T00:16:37.925Z,76.20
2019-03-12T00:19:04.106Z,76.10
2019-03-12T00:21:30.249Z,75.80
2019-03-12T00:23:56.621Z,75.70
2019-03-12T00:26:23.119Z,75.60
2019-03-12T00:28:49.290Z,75.40
2019-03-12T00:31:15.437Z,75.20
2019-03-12T00:33:41.627Z,75.10
2019-03-12T00:36:07.780Z,75.00
2019-03-12T00:38:33.970Z,75.00
2019-03-12T00:41:00.126Z,75.10
2019-03-12T00:43:26.290Z,75.00
2019-03-12T00:45:52.426Z,75.00
2019-03-12T00:48:18.607Z,75.10
2019-03-12T00:50:44.745Z,75.10
2019-03-12T00:53:10.885Z,75.20
2019-03-12T00:55:37.050Z,75.10
2019-03-12T00:58:03.497Z,75.10
2019-03-12T01:00:29.669Z,75.00
2019-03-12T01:02:55.897Z,75.00
2019-03-12T01:05:22.082Z,75.00
2019-03-12T01:07:48.278Z,74.90
2019-03-12T01:10:14.569Z,74.90
2019-03-12T01:12:40.812Z,74.80
2019-03-12T01:15:12.526Z,74.80
2019-03-12T01:17:38.663Z,74.70
2019-03-12T01:20:09.250Z,74.80
2019-03-12T01:22:35.422Z,74.80
2019-03-12T01:25:01.849Z,74.80
2019-03-12T01:27:27.993Z,74.80
2019-03-12T01:29:54.166Z,74.70
2019-03-12T01:32:20.668Z,74.70
2019-03-12T01:34:46.839Z,74.70
2019-03-12T01:37:12.979Z,75.40
2019-03-12T01:39:39.159Z,74.50
2019-03-12T01:42:05.322Z,74.50
2019-03-12T01:44:31.523Z,74.50
2019-03-12T01:46:57.666Z,74.50
2019-03-12T01:49:23.843Z,74.50
2019-03-12T01:51:50.242Z,74.50
2019-03-12T01:54:16.445Z,74.50
2019-03-12T01:56:42.589Z,74.40
2019-03-12T01:59:08.754Z,74.40
2019-03-12T02:01:34.986Z,74.30
2019-03-12T02:04:01.190Z,74.30
2019-03-12T02:06:27.330Z,75.00
2019-03-12T02:08:53.608Z,74.10
2019-03-12T02:11:19.778Z,74.10
2019-03-12T02:13:45.915Z,74.10
2019-03-12T02:16:12.081Z,73.90
2019-03-12T02:18:38.261Z,73.70
2019-03-12T02:21:04.432Z,73.70
2019-03-12T02:23:30.569Z,73.70
2019-03-12T02:25:56.749Z,73.50
2019-03-12T02:28:22.893Z,73.30
2019-03-12T02:30:49.196Z,73.30
2019-03-12T02:33:15.353Z,73.30
2019-03-12T02:35:41.545Z,73.40
2019-03-12T02:38:07.696Z,73.30
2019-03-12T02:40:34.229Z,73.30
2019-03-12T02:43:00.359Z,73.30
2019-03-12T02:45:26.548Z,73.30
2019-03-12T02:47:52.673Z,73.20
2019-03-12T02:50:18.864Z,73.20
2019-03-12T02:52:45.116Z,73.20
2019-03-12T02:55:12.978Z,73.30
2019-03-12T02:57:39.104Z,73.30
2019-03-12T03:00:20.415Z,73.20
2019-03-12T03:02:46.555Z,73.30
2019-03-12T03:05:12.736Z,73.30
2019-03-12T03:07:48.908Z,73.30
2019-03-12T03:10:15.183Z,73.30
2019-03-12T03:12:41.375Z,73.30
2019-03-12T03:15:34.858Z,73.30
2019-03-12T03:18:00.984Z,73.40
2019-03-12T03:20:27.247Z,73.40
2019-03-12T03:22:53.390Z,73.50
2019-03-12T03:25:19.580Z,73.50
2019-03-12T03:27:45.769Z,74.30
2019-03-12T03:30:16.342Z,73.70
2019-03-12T03:32:42.498Z,73.70
2019-03-12T03:35:09.212Z,73.70
2019-03-12T03:37:35.377Z,73.70
2019-03-12T03:40:02.654Z,73.70
2019-03-12T03:42:28.790Z,73.60
2019-03-12T03:44:55.010Z,73.60
2019-03-12T03:47:21.214Z,73.60
2019-03-12T03:49:47.313Z,73.60
2019-03-12T03:52:13.501Z,73.60
2019-03-12T03:54:39.731Z,73.60
2019-03-12T03:57:05.908Z,73.60
2019-03-12T03:59:32.059Z,73.50
2019-03-12T04:01:58.335Z,73.50
2019-03-12T04:04:24.854Z,73.50
2019-03-12T04:06:51.048Z,73.50
2019-03-12T04:09:17.172Z,73.60
2019-03-12T04:11:43.344Z,73.50
2019-03-12T04:14:09.483Z,73.30
2019-03-12T04:16:35.652Z,73.20
2019-03-12T04:19:01.789Z,73.00
2019-03-12T04:21:27.989Z,72.80
2019-03-12T04:23:54.277Z,72.80
2019-03-12T04:26:20.711Z,73.40
2019-03-12T04:28:46.848Z,72.70
2019-03-12T04:31:13.281Z,72.60
2019-03-12T04:33:59.826Z,72.70
2019-03-12T04:36:26.137Z,72.70
2019-03-12T04:38:52.292Z,72.70
2019-03-12T04:41:18.492Z,72.70
2019-03-12T04:43:44.630Z,72.70
2019-03-12T04:46:10.844Z,72.70
2019-03-12T04:48:37.008Z,72.80
2019-03-12T04:51:03.191Z,72.80
2019-03-12T04:53:29.341Z,72.70
2019-03-12T04:55:55.840Z,72.70
2019-03-12T04:58:22.003Z,72.40
2019-03-12T05:00:48.501Z,72.90
2019-03-12T05:03:14.661Z,72.10
2019-03-12T05:05:40.831Z,72.00
2019-03-12T05:08:07.212Z,71.90
2019-03-12T05:10:33.377Z,71.90
2019-03-12T05:12:59.553Z,71.30
2019-03-12T05:15:25.694Z,72.00
2019-03-12T05:17:52.816Z,72.00
2019-03-12T05:20:18.954Z,72.00
2019-03-12T05:22:45.117Z,72.10
2019-03-12T05:25:14.379Z,72.20
2019-03-12T05:27:40.756Z,72.40
2019-03-12T05:30:17.411Z,72.40
2019-03-12T05:32:43.593Z,72.60
2019-03-12T05:35:09.949Z,72.60
2019-03-12T05:37:36.138Z,72.90
2019-03-12T05:40:06.688Z,72.90
2019-03-12T05:42:32.883Z,73.10
2019-03-12T05:44:59.040Z,73.30
2019-03-12T05:47:25.204Z,73.40
2019-03-12T05:49:51.346Z,73.60
2019-03-12T05:52:17.527Z,73.80
2019-03-12T05:54:43.699Z,74.10
2019-03-12T05:57:09.876Z,75.00
2019-03-12T05:59:36.300Z,76.00
2019-03-12T06:02:02.767Z,77.00
2019-03-12T06:04:28.909Z,77.70
2019-03-12T06:06:55.076Z,77.90
2019-03-12T06:09:30.258Z,77.50
2019-03-12T06:11:49.336Z,76.90
2019-03-12T06:14:15.758Z,76.00
2019-03-12T06:16:41.951Z,75.30
2019-03-12T06:19:08.179Z,74.80
2019-03-12T06:21:34.341Z,74.40
2019-03-12T06:24:00.485Z,74.00
2019-03-12T06:26:26.680Z,73.80
2019-03-12T06:28:52.825Z,73.70
2019-03-12T06:31:37.625Z,73.70
2019-03-12T06:34:05.681Z,73.50
2019-03-12T06:36:36.668Z,73.30
2019-03-12T06:39:10.357Z,73.00
2019-03-12T06:41:53.719Z,72.80
2019-03-12T06:44:30.550Z,72.70
2019-03-12T06:46:58.624Z,72.90
2019-03-12T06:49:27.027Z,73.40
2019-03-12T06:52:04.108Z,74.90
2019-03-12T06:54:35.062Z,77.40
2019-03-12T06:57:09.048Z,76.60
2019-03-12T06:59:43.276Z,76.00
2019-03-12T07:02:23.767Z,74.40
2019-03-12T07:04:57.948Z,73.50
2019-03-12T07:07:45.803Z,72.60
2019-03-12T07:10:23.864Z,72.00
2019-03-12T07:12:51.923Z,72.00
2019-03-12T07:15:36.856Z,71.70
2019-03-12T07:18:07.874Z,71.60
2019-03-12T07:20:41.654Z,71.90
2019-03-12T07:23:09.720Z,71.80
2019-03-12T07:25:37.789Z,71.90
2019-03-12T07:28:08.762Z,72.00
2019-03-12T07:30:51.980Z,72.00
2019-03-12T07:33:22.715Z,72.20
2019-03-12T07:36:00.276Z,72.60
2019-03-12T07:38:43.602Z,72.70
2019-03-12T07:41:32.263Z,73.00
2019-03-12T07:44:07.462Z,73.50
2019-03-12T07:46:35.544Z,74.00
2019-03-12T07:49:16.036Z,73.80
2019-03-12T07:51:47.045Z,74.10
2019-03-12T07:54:15.099Z,74.60
2019-03-12T07:57:00.035Z,74.30
2019-03-12T07:59:31.072Z,73.50
2019-03-12T08:02:15.668Z,72.70
2019-03-12T08:04:59.358Z,72.00
2019-03-12T08:10:02.208Z,72.00
2019-03-12T08:12:47.142Z,71.00
2019-03-12T08:15:27.412Z,70.50
2019-03-12T08:18:11.994Z,70.10
2019-03-12T08:20:56.886Z,69.60
2019-03-12T08:23:24.933Z,69.60
2019-03-12T08:25:55.954Z,69.60
2019-03-12T08:28:24.089Z,69.70
2019-03-12T08:30:52.267Z,70.00
2019-03-12T08:33:20.338Z,69.80
2019-03-12T08:35:51.041Z,70.00
2019-03-12T08:38:25.069Z,69.90
2019-03-12T08:40:55.955Z,68.30
2019-03-12T08:43:26.899Z,68.20
2019-03-12T08:45:54.961Z,68.20
2019-03-12T08:48:23.032Z,67.90
2019-03-12T08:50:53.797Z,67.80
2019-03-12T08:53:34.124Z,67.70
2019-03-12T08:56:04.961Z,67.30
2019-03-12T08:58:49.942Z,67.10
2019-03-12T09:01:27.214Z,67.30
2019-03-12T09:03:57.991Z,65.80
2019-03-12T09:06:32.296Z,66.10
2019-03-12T09:09:00.367Z,65.80
2019-03-12T09:11:45.282Z,66.20
2019-03-12T09:14:22.522Z,66.10
2019-03-12T09:16:50.689Z,65.90
2019-03-12T09:19:18.735Z,65.90
2019-03-12T09:21:59.263Z,65.90
2019-03-12T09:24:27.388Z,65.60
2019-03-12T09:26:58.133Z,65.80
2019-03-12T09:29:32.114Z,65.60
2019-03-12T09:32:16.715Z,65.80
2019-03-12T09:34:54.040Z,65.40
2019-03-12T09:37:26.839Z,65.50
2019-03-12T09:40:00.643Z,64.70
2019-03-12T09:42:45.481Z,65.10
2019-03-12T09:45:13.523Z,64.50
2019-03-12T09:47:41.667Z,64.90
2019-03-12T09:50:13.202Z,65.20
2019-03-12T09:52:43.199Z,64.90
2019-03-12T09:55:13.912Z,65.00
2019-03-12T09:57:45.140Z,65.40
2019-03-12T10:00:33.666Z,65.80
2019-03-12T10:03:07.682Z,65.90
2019-03-12T10:05:38.370Z,66.40
2019-03-12T10:08:18.638Z,65.70
2019-03-12T10:10:58.848Z,65.10
2019-03-12T10:13:26.930Z,65.20
2019-03-12T10:16:10.542Z,64.00
2019-03-12T10:18:44.285Z,61.90
2019-03-12T10:21:27.242Z,62.00
2019-03-12T10:24:10.323Z,62.80
2019-03-12T10:26:55.055Z,63.70
2019-03-12T10:29:32.240Z,64.30
2019-03-12T10:32:18.242Z,64.80
2019-03-12T10:34:55.339Z,65.20
2019-03-12T10:37:29.100Z,65.60
2019-03-12T10:40:16.932Z,64.70
2019-03-12T10:42:52.095Z,62.80
2019-03-12T10:45:20.553Z,61.30
2019-03-12T10:47:48.599Z,60.30
2019-03-12T10:50:15.261Z,59.50
2019-03-12T10:52:41.383Z,59.70
2019-03-12T10:55:13.198Z,59.80
2019-03-12T10:57:35.913Z,60.00
2019-03-12T11:00:10.126Z,60.30
2019-03-12T11:02:36.254Z,60.60
2019-03-12T11:05:04.742Z,60.70
2019-03-12T11:07:30.881Z,60.90
2019-03-12T11:09:57.039Z,59.30
2019-03-12T11:12:23.225Z,59.50
2019-03-12T11:14:49.486Z,58.90
2019-03-12T11:17:15.632Z,58.00
2019-03-12T11:19:41.825Z,56.90
2019-03-12T11:22:08.047Z,57.30
2019-03-12T11:24:34.222Z,57.70
2019-03-12T11:27:00.363Z,56.80
2019-03-12T11:29:26.784Z,57.00
2019-03-12T11:31:52.916Z,57.50
2019-03-12T11:34:19.352Z,58.10
2019-03-12T11:36:45.511Z,59.40
2019-03-12T11:39:11.802Z,58.80
2019-03-12T11:41:37.949Z,58.30
2019-03-12T11:44:04.167Z,56.80
2019-03-12T11:46:40.829Z,57.00
2019-03-12T11:48:58.492Z,57.30
2019-03-12T11:51:24.880Z,56.50
2019-03-12T11:53:51.045Z,56.20
2019-03-12T11:56:17.225Z,56.40
2019-03-12T11:58:43.378Z,56.80
2019-03-12T12:01:09.609Z,56.40
2019-03-12T12:03:35.806Z,55.60
2019-03-12T12:06:01.976Z,54.00
2019-03-12T12:08:28.118Z,52.30
2019-03-12T12:10:54.396Z,51.20
2019-03-12T12:13:20.847Z,50.80
2019-03-12T12:15:47.014Z,50.10
2019-03-12T12:18:13.455Z,50.60
2019-03-12T12:20:39.607Z,50.70
2019-03-12T12:23:05.953Z,50.20
2019-03-12T12:25:32.337Z,49.80
2019-03-12T12:27:58.468Z,50.50
2019-03-12T12:30:24.656Z,52.00
2019-03-12T12:32:51.242Z,51.70
2019-03-12T12:35:17.515Z,51.30
2019-03-12T12:37:43.655Z,50.40
2019-03-12T12:40:19.419Z,49.90
2019-03-12T12:42:45.579Z,49.30
2019-03-12T12:45:27.634Z,48.50
2019-03-12T12:47:53.788Z,49.30
2019-03-12T12:50:20.057Z,49.40
2019-03-12T12:52:46.194Z,50.20
2019-03-12T12:55:13.185Z,50.10
2019-03-12T12:57:39.785Z,50.00
2019-03-12T13:00:21.377Z,50.60
2019-03-12T13:02:47.529Z,50.20
2019-03-12T13:05:13.857Z,49.90
2019-03-12T13:07:40.491Z,49.40
2019-03-12T13:10:28.206Z,49.30
2019-03-12T13:12:54.504Z,49.40
2019-03-12T13:15:20.662Z,49.80
2019-03-12T13:17:46.848Z,50.00
2019-03-12T13:20:13.528Z,48.40
2019-03-12T13:22:39.720Z,48.70
2019-03-12T13:25:12.190Z,48.40
2019-03-12T13:27:42.540Z,47.60
2019-03-12T13:30:13.806Z,47.80
2019-03-12T13:32:39.975Z,46.60
2019-03-12T13:35:09.317Z,46.40
2019-03-12T13:37:35.487Z,45.20
2019-03-12T13:40:05.530Z,46.00
2019-03-12T13:42:31.733Z,45.50
2019-03-12T13:44:57.874Z,44.60
2019-03-12T13:47:28.618Z,45.20
2019-03-12T13:49:52.379Z,44.70
2019-03-12T13:52:18.628Z,44.40
2019-03-12T13:54:44.763Z,44.40
2019-03-12T13:57:10.927Z,44.70
2019-03-12T13:59:37.063Z,44.70
2019-03-12T14:02:03.236Z,45.10
2019-03-12T14:04:29.392Z,45.40
2019-03-12T14:06:55.589Z,45.10
2019-03-12T14:09:21.982Z,45.80
2019-03-12T14:11:48.159Z,46.30
2019-03-12T14:14:14.347Z,46.50
2019-03-12T14:16:40.564Z,46.40
2019-03-12T14:19:06.807Z,46.90
2019-03-12T14:21:37.681Z,47.00
2019-03-12T14:24:03.810Z,47.00
2019-03-12T14:26:29.959Z,45.80
2019-03-12T14:28:56.103Z,46.10
2019-03-12T14:31:22.323Z,46.20
2019-03-12T14:33:48.465Z,46.20
2019-03-12T14:36:14.596Z,46.10
2019-03-12T14:38:40.907Z,46.70
2019-03-12T14:41:07.046Z,46.90
2019-03-12T14:43:33.224Z,46.60
2019-03-12T14:45:59.403Z,46.70
2019-03-12T14:48:50.704Z,47.00
2019-03-12T14:51:36.599Z,47.30
2019-03-12T14:54:11.975Z,47.10
2019-03-12T14:56:38.345Z,47.50
2019-03-12T14:59:04.738Z,47.20
2019-03-12T15:01:30.882Z,46.80
2019-03-12T15:03:57.133Z,47.40
2019-03-12T15:06:23.287Z,47.30
2019-03-12T15:08:49.459Z,47.20
2019-03-12T15:11:15.732Z,46.10
2019-03-12T15:13:41.888Z,47.40
2019-03-12T15:16:08.021Z,46.80
2019-03-12T15:18:34.204Z,46.90
2019-03-12T15:21:00.354Z,46.80
2019-03-12T15:23:26.546Z,47.20
2019-03-12T15:25:53.010Z,47.20
2019-03-12T15:28:20.408Z,47.10
2019-03-12T15:30:46.573Z,47.10
2019-03-12T15:33:12.754Z,47.20
2019-03-12T15:35:39.413Z,46.60
2019-03-12T15:38:05.595Z,47.00
2019-03-12T15:40:31.825Z,47.20
2019-03-12T15:42:57.980Z,47.60
2019-03-12T15:45:24.256Z,47.90
2019-03-12T15:47:50.466Z,47.90
2019-03-12T15:50:18.958Z,47.90
2019-03-12T15:52:44.817Z,48.00
2019-03-12T15:55:11.899Z,48.10
2019-03-12T15:57:38.036Z,48.30
2019-03-12T16:00:11.291Z,47.80
2019-03-12T16:02:37.398Z,48.90
2019-03-12T16:05:06.288Z,48.50
2019-03-12T16:07:32.475Z,48.60
2019-03-12T16:09:59.281Z,48.60
2019-03-12T16:12:25.439Z,48.40
2019-03-12T16:14:51.621Z,48.20
2019-03-12T16:17:17.754Z,48.70
2019-03-12T16:19:43.949Z,48.90
2019-03-12T16:22:10.108Z,48.90
2019-03-12T16:24:36.265Z,48.50
2019-03-12T16:27:03.421Z,48.80
2019-03-12T16:29:29.789Z,48.70
2019-03-12T16:31:55.935Z,48.10
2019-03-12T16:34:22.069Z,48.70
2019-03-12T16:36:48.332Z,48.60
2019-03-12T16:39:14.498Z,48.70
2019-03-12T16:41:40.675Z,49.10
2019-03-12T16:44:06.816Z,48.60
2019-03-12T16:46:32.986Z,49.00
2019-03-12T16:48:59.112Z,49.30
2019-03-12T16:51:25.291Z,49.40
2019-03-12T16:53:51.796Z,49.60
2019-03-12T16:56:17.954Z,49.70
2019-03-12T16:58:44.139Z,49.80
2019-03-12T17:01:10.536Z,49.70
2019-03-12T17:03:36.697Z,49.80
2019-03-12T17:06:03.165Z,49.80
2019-03-12T17:08:29.303Z,49.80
2019-03-12T17:11:02.207Z,50.20
2019-03-12T17:13:23.511Z,50.30
2019-03-12T17:15:54.443Z,50.90
2019-03-12T17:18:17.842Z,50.90
2019-03-12T17:20:43.968Z,50.80
2019-03-12T17:23:10.126Z,50.80
2019-03-12T17:25:36.276Z,50.90
2019-03-12T17:28:02.446Z,51.00
2019-03-12T17:30:29.080Z,51.00
2019-03-12T17:32:55.246Z,51.20
2019-03-12T17:35:31.339Z,51.20
2019-03-12T17:37:57.801Z,51.20
2019-03-12T17:40:24.041Z,51.10
2019-03-12T17:42:50.277Z,51.10
2019-03-12T17:45:16.403Z,51.50
2019-03-12T17:47:42.602Z,51.50
2019-03-12T17:50:11.326Z,51.40
2019-03-12T17:52:37.488Z,51.40
2019-03-12T17:55:08.167Z,51.50
2019-03-12T17:57:34.343Z,51.70
2019-03-12T18:00:00.485Z,51.60
2019-03-12T18:02:26.645Z,51.90
2019-03-12T18:04:52.774Z,51.70
2019-03-12T18:07:19.230Z,51.50
2019-03-12T18:09:45.456Z,51.40
2019-03-12T18:12:11.860Z,51.60
2019-03-12T18:14:38.023Z,51.50
2019-03-12T18:17:04.192Z,51.80
2019-03-12T18:19:30.319Z,51.70
2019-03-12T18:21:57.006Z,51.60
2019-03-12T18:24:23.135Z,51.70
2019-03-12T18:26:49.354Z,51.50
2019-03-12T18:29:15.501Z,51.60
2019-03-12T18:31:41.634Z,51.70
2019-03-12T18:34:08.085Z,51.80
2019-03-12T18:36:34.249Z,51.60
2019-03-12T18:39:03.305Z,51.40
2019-03-12T18:41:28.504Z,51.50
2019-03-12T18:43:54.691Z,51.50
2019-03-12T18:46:21.093Z,51.50
2019-03-12T18:48:47.311Z,51.20
2019-03-12T18:51:13.450Z,51.20
2019-03-12T18:53:39.607Z,51.00
2019-03-12T18:56:05.776Z,51.20
2019-03-12T18:58:31.945Z,50.80
2019-03-12T19:01:00.567Z,50.40
2019-03-12T19:03:26.744Z,51.00
2019-03-12T19:05:53.216Z,51.10
2019-03-12T19:08:19.386Z,50.70
2019-03-12T19:10:45.525Z,51.00
2019-03-12T19:13:11.838Z,50.00
2019-03-12T19:15:38.045Z,50.10
2019-03-12T19:18:04.420Z,50.40
2019-03-12T19:20:33.101Z,51.10
2019-03-12T19:22:58.626Z,50.60
2019-03-12T19:25:37.968Z,50.40
2019-03-12T19:28:03.493Z,50.20
2019-03-12T19:30:30.000Z,49.80
2019-03-12T19:32:58.066Z,50.40
2019-03-12T19:35:29.124Z,50.70
2019-03-12T19:37:57.161Z,49.10
2019-03-12T19:40:31.447Z,50.00
2019-03-12T19:42:58.123Z,49.90
2019-03-12T19:45:24.519Z,49.90
2019-03-12T19:47:50.862Z,49.80
2019-03-12T19:50:19.540Z,50.10
2019-03-12T19:52:45.954Z,49.70
2019-03-12T19:55:44.556Z,49.30
2019-03-12T19:58:10.843Z,49.60
2019-03-12T20:00:37.485Z,49.70
2019-03-12T20:03:10.841Z,49.80
2019-03-12T20:05:32.007Z,49.20
2019-03-12T20:07:58.230Z,49.50
2019-03-12T20:10:45.562Z,49.50
2019-03-12T20:14:08.298Z,49.10
2019-03-12T20:17:16.386Z,48.70
2019-03-12T20:20:07.542Z,49.20
2019-03-12T20:23:08.199Z,49.30
2019-03-12T20:26:23.876Z,49.60
2019-03-12T20:29:29.493Z,49.40
2019-03-12T20:32:16.396Z,49.70
2019-03-12T20:35:10.844Z,48.60
2019-03-12T20:38:33.499Z,49.00
2019-03-12T20:41:28.254Z,49.30
2019-03-12T20:44:40.246Z,49.60
2019-03-12T20:47:30.465Z,49.00
2019-03-12T20:50:20.565Z,49.50
2019-03-12T20:53:15.155Z,49.40
2019-03-12T20:56:24.811Z,49.10
2019-03-12T20:59:26.375Z,49.70
2019-03-12T21:02:41.427Z,48.90
2019-03-12T21:05:59.103Z,49.90
2019-03-12T21:09:22.117Z,49.80
2019-03-12T21:12:11.959Z,49.10
2019-03-12T21:15:05.635Z,49.90
2019-03-12T21:17:52.854Z,50.00
2019-03-12T21:21:02.329Z,50.00
2019-03-12T21:24:01.480Z,49.60
2019-03-12T21:27:02.799Z,49.80
2019-03-12T21:29:45.716Z,50.00
2019-03-12T21:32:14.183Z,50.20
2019-03-12T21:34:40.619Z,50.40
2019-03-12T21:37:07.012Z,50.50
2019-03-12T21:39:33.706Z,50.30
2019-03-12T21:42:00.578Z,50.30
2019-03-12T21:44:27.454Z,50.40
2019-03-12T21:46:54.126Z,50.20
2019-03-12T21:49:20.330Z,50.30
2019-03-12T21:51:46.600Z,50.30
2019-03-12T21:54:13.038Z,50.20
2019-03-12T21:56:39.220Z,50.20
2019-03-12T21:59:05.830Z,50.10
2019-03-12T22:01:32.168Z,50.10
2019-03-12T22:03:58.299Z,50.40
2019-03-12T22:06:24.469Z,50.30
2019-03-12T22:08:50.642Z,50.30
2019-03-12T22:11:17.187Z,50.30
2019-03-12T22:13:43.348Z,50.40
2019-03-12T22:16:09.497Z,50.50
2019-03-12T22:18:35.629Z,50.50
2019-03-12T22:21:01.812Z,50.50
2019-03-12T22:23:32.994Z,50.50
2019-03-12T22:25:59.389Z,50.40
2019-03-12T22:28:25.547Z,50.40
2019-03-12T22:30:52.262Z,50.40
2019-03-12T22:33:18.499Z,50.40
2019-03-12T22:35:44.641Z,50.60
2019-03-12T22:38:11.090Z,50.60
2019-03-12T22:40:37.507Z,50.70
2019-03-12T22:43:03.662Z,50.70
2019-03-12T22:45:29.818Z,50.70
2019-03-12T22:47:55.976Z,50.60
2019-03-12T22:50:22.149Z,50.60
2019-03-12T22:52:48.294Z,50.60
2019-03-12T22:55:14.451Z,50.50
2019-03-12T22:57:40.969Z,50.50
2019-03-12T23:00:13.676Z,50.60
2019-03-12T23:02:39.893Z,50.50
2019-03-12T23:05:08.873Z,50.50
2019-03-12T23:07:35.043Z,50.00
2019-03-12T23:10:04.190Z,50.30
2019-03-12T23:12:30.647Z,50.30
2019-03-12T23:14:57.231Z,50.20
2019-03-12T23:17:23.379Z,49.80
2019-03-12T23:19:49.630Z,49.80
2019-03-12T23:22:16.002Z,49.90
2019-03-12T23:24:42.149Z,49.50
2019-03-12T23:27:08.281Z,49.50
2019-03-12T23:29:34.439Z,49.50
2019-03-12T23:32:00.673Z,49.60
2019-03-12T23:34:26.832Z,49.30
2019-03-12T23:36:53.312Z,49.40
2019-03-12T23:39:19.525Z,48.90
2019-03-12T23:41:45.633Z,48.90
2019-03-12T23:44:11.798Z,48.70
2019-03-12T23:46:37.971Z,48.80
2019-03-12T23:49:04.128Z,48.50
2019-03-12T23:51:30.281Z,48.70
2019-03-12T23:53:56.431Z,48.40
2019-03-12T23:56:22.575Z,48.40
2019-03-12T23:58:48.771Z,48.30
